createdAt,value
2023-09-03T00:00:44.746Z,8.88
2023-09-03T00:03:12.351Z,8.68
2023-09-03T00:05:49.251Z,11.80
2023-09-03T00:08:17.271Z,9.27
2023-09-03T00:10:48.608Z,11.57
2023-09-03T00:13:16.070Z,9.85
2023-09-03T00:15:43.630Z,9.65
2023-09-03T00:18:16.029Z,10.85
2023-09-03T00:21:04.816Z,10.23
2023-09-03T00:23:33.168Z,7.57
2023-09-03T00:26:02.114Z,8.50
2023-09-03T00:28:29.948Z,9.45
2023-09-03T00:31:15.896Z,8.65
2023-09-03T00:33:43.529Z,12.57
2023-09-03T00:36:11.243Z,11.07
2023-09-03T00:38:40.152Z,9.40
2023-09-03T00:41:07.563Z,9.10
2023-09-03T00:43:35.346Z,9.23
2023-09-03T00:46:06.877Z,9.88
2023-09-03T00:48:34.956Z,9.65
2023-09-03T00:51:08.081Z,8.68
2023-09-03T00:53:41.574Z,12.30
2023-09-03T00:56:09.853Z,9.90
2023-09-03T00:58:38.210Z,11.82
2023-09-03T01:01:06.565Z,13.70
2023-09-03T01:03:34.302Z,9.20
2023-09-03T01:06:01.922Z,10.98
2023-09-03T01:08:30.225Z,11.68
2023-09-03T01:11:39.568Z,15.90
2023-09-03T01:14:25.375Z,10.30
2023-09-03T01:17:03.246Z,11.30
2023-09-03T01:19:52.152Z,11.25
2023-09-03T01:22:35.500Z,12.50
2023-09-03T01:25:25.340Z,11.18
2023-09-03T01:27:56.490Z,13.73
2023-09-03T01:30:24.269Z,11.50
2023-09-03T01:32:53.414Z,10.65
2023-09-03T01:35:23.237Z,11.32
2023-09-03T01:37:50.738Z,14.90
2023-09-03T01:40:19.835Z,12.38
2023-09-03T01:42:47.334Z,14.40
2023-09-03T01:45:14.771Z,11.38
2023-09-03T01:48:02.464Z,10.38
2023-09-03T01:50:40.502Z,9.98
2023-09-03T01:53:30.319Z,12.20
2023-09-03T01:56:03.666Z,16.02
2023-09-03T01:58:34.212Z,12.35
2023-09-03T02:01:04.042Z,11.85
2023-09-03T02:03:32.455Z,12.23
2023-09-03T02:05:59.833Z,14.27
2023-09-03T02:08:27.710Z,13.55
2023-09-03T02:10:55.233Z,13.77
2023-09-03T02:13:22.825Z,12.75
2023-09-03T02:15:50.819Z,10.85
2023-09-03T02:18:19.062Z,11.45
2023-09-03T02:20:46.788Z,16.90
2023-09-03T02:23:18.270Z,12.25
2023-09-03T02:25:46.265Z,13.10
2023-09-03T02:28:13.707Z,10.82
2023-09-03T02:30:41.171Z,13.23
2023-09-03T02:33:08.738Z,13.18
2023-09-03T02:35:36.292Z,14.00
2023-09-03T02:38:04.416Z,13.02
2023-09-03T02:40:31.836Z,12.48
2023-09-03T02:42:59.307Z,13.77
2023-09-03T02:45:26.696Z,12.90
2023-09-03T02:47:54.268Z,11.73
2023-09-03T02:50:21.776Z,11.32
2023-09-03T02:52:52.687Z,17.45
2023-09-03T02:55:20.129Z,12.50
2023-09-03T02:57:47.585Z,15.65
2023-09-03T03:00:15.528Z,12.63
2023-09-03T03:02:42.971Z,14.25
2023-09-03T03:05:10.612Z,15.50
2023-09-03T03:07:41.529Z,12.50
2023-09-03T03:10:10.795Z,12.15
2023-09-03T03:12:38.944Z,12.98
2023-09-03T03:15:07.007Z,14.23
2023-09-03T03:17:34.998Z,16.35
2023-09-03T03:20:04.264Z,12.95
2023-09-03T03:22:31.819Z,11.50
2023-09-03T03:24:59.272Z,13.38
2023-09-03T03:27:26.953Z,12.68
2023-09-03T03:29:54.683Z,13.52
2023-09-03T03:32:23.297Z,12.15
2023-09-03T03:34:54.864Z,8.63
2023-09-03T03:37:22.634Z,12.90
2023-09-03T03:39:53.070Z,10.02
2023-09-03T03:42:22.135Z,8.10
2023-09-03T03:44:49.744Z,8.93
2023-09-03T03:47:17.139Z,8.02
2023-09-03T03:49:45.039Z,8.32
2023-09-03T03:52:12.511Z,11.68
2023-09-03T03:54:40.228Z,10.52
2023-09-03T03:57:07.673Z,8.05
2023-09-03T03:59:35.300Z,10.52
2023-09-03T04:02:02.754Z,9.20
2023-09-03T04:04:30.169Z,10.35
2023-09-03T04:06:57.673Z,8.65
2023-09-03T04:09:25.124Z,8.93
2023-09-03T04:11:52.527Z,11.18
2023-09-03T04:14:19.928Z,8.85
2023-09-03T04:16:48.184Z,9.90
2023-09-03T04:19:15.833Z,9.10
2023-09-03T04:21:43.330Z,7.18
2023-09-03T04:24:11.309Z,8.98
2023-09-03T04:26:38.900Z,7.53
2023-09-03T04:29:09.145Z,9.43
2023-09-03T04:31:37.301Z,8.65
2023-09-03T04:34:07.074Z,6.28
2023-09-03T04:36:35.968Z,12.35
2023-09-03T04:39:04.962Z,6.88
2023-09-03T04:41:34.339Z,9.00
2023-09-03T04:44:09.742Z,11.13
2023-09-03T04:46:44.138Z,8.02
2023-09-03T04:49:11.708Z,6.70
2023-09-03T04:51:39.308Z,7.47
2023-09-03T04:54:08.020Z,9.23
2023-09-03T04:56:35.850Z,10.93
2023-09-03T04:59:03.277Z,7.43
2023-09-03T05:01:30.693Z,9.07
2023-09-03T05:04:00.354Z,6.93
2023-09-03T05:06:28.037Z,7.40
2023-09-03T05:08:58.222Z,7.18
2023-09-03T05:11:27.174Z,8.90
2023-09-03T05:13:58.050Z,10.32
2023-09-03T05:16:28.349Z,8.30
2023-09-03T05:18:57.773Z,7.45
2023-09-03T05:21:25.500Z,7.15
2023-09-03T05:23:53.091Z,7.32
2023-09-03T05:26:20.691Z,8.80
2023-09-03T05:28:48.504Z,6.80
2023-09-03T05:31:17.123Z,8.40
2023-09-03T05:33:44.864Z,7.25
2023-09-03T05:36:13.669Z,7.20
2023-09-03T05:38:44.518Z,7.90
2023-09-03T05:41:12.446Z,7.97
2023-09-03T05:43:39.996Z,7.03
2023-09-03T05:46:07.732Z,7.95
2023-09-03T05:48:36.023Z,7.30
2023-09-03T05:51:06.206Z,7.93
2023-09-03T05:53:36.555Z,9.05
2023-09-03T05:56:08.598Z,8.52
2023-09-03T05:58:38.072Z,7.32
2023-09-03T06:01:07.114Z,10.75
2023-09-03T06:03:35.485Z,6.20
2023-09-03T06:06:04.735Z,7.47
2023-09-03T06:08:37.433Z,9.77
2023-09-03T06:11:09.478Z,6.35
2023-09-03T06:13:37.242Z,8.80
2023-09-03T06:16:05.057Z,8.75
2023-09-03T06:18:32.666Z,7.22
2023-09-03T06:21:00.249Z,8.15
2023-09-03T06:23:27.714Z,8.98
2023-09-03T06:25:55.151Z,6.50
2023-09-03T06:28:23.076Z,7.53
2023-09-03T06:30:50.673Z,4.80
2023-09-03T06:33:18.098Z,7.38
2023-09-03T06:35:45.681Z,4.00
2023-09-03T06:38:13.112Z,6.03
2023-09-03T06:40:40.576Z,4.25
2023-09-03T06:43:08.038Z,9.77
2023-09-03T06:45:35.438Z,5.10
2023-09-03T06:48:02.875Z,8.50
2023-09-03T06:50:30.369Z,5.90
2023-09-03T06:52:57.784Z,9.18
2023-09-03T06:55:25.208Z,5.00
2023-09-03T06:57:52.672Z,4.28
2023-09-03T07:00:20.288Z,8.88
2023-09-03T07:02:47.711Z,7.65
2023-09-03T07:05:15.645Z,4.50
2023-09-03T07:07:43.645Z,4.25
2023-09-03T07:10:11.106Z,4.38
2023-09-03T07:12:38.522Z,5.18
2023-09-03T07:15:06.669Z,5.20
2023-09-03T07:17:34.308Z,5.55
2023-09-03T07:20:01.802Z,6.78
2023-09-03T07:22:30.931Z,4.75
2023-09-03T07:24:58.517Z,4.32
2023-09-03T07:27:26.015Z,6.55
2023-09-03T07:29:54.384Z,8.10
2023-09-03T07:32:22.596Z,7.43
2023-09-03T07:34:51.316Z,6.00
2023-09-03T07:37:19.391Z,5.85
2023-09-03T07:39:47.664Z,7.15
2023-09-03T07:42:15.488Z,5.80
2023-09-03T07:44:43.081Z,6.28
2023-09-03T07:47:10.627Z,4.18
2023-09-03T07:49:38.088Z,5.60
2023-09-03T07:52:07.998Z,6.40
2023-09-03T07:54:35.729Z,4.70
2023-09-03T07:57:03.121Z,7.63
2023-09-03T07:59:30.530Z,11.38
2023-09-03T08:02:01.656Z,4.35
2023-09-03T08:04:30.009Z,6.72
2023-09-03T08:06:57.582Z,7.78
2023-09-03T08:09:26.741Z,4.32
2023-09-03T08:11:54.299Z,7.78
2023-09-03T08:14:22.355Z,6.65
2023-09-03T08:16:49.784Z,4.30
2023-09-03T08:19:17.278Z,5.22
2023-09-03T08:21:46.064Z,8.95
2023-09-03T08:24:13.655Z,6.32
2023-09-03T08:26:41.186Z,4.03
2023-09-03T08:29:10.077Z,7.28
2023-09-03T08:31:37.555Z,5.00
2023-09-03T08:34:05.095Z,7.05
2023-09-03T08:36:32.573Z,7.75
2023-09-03T08:39:01.968Z,6.72
2023-09-03T08:41:32.328Z,3.55
2023-09-03T08:44:04.411Z,3.92
2023-09-03T08:46:33.768Z,5.57
2023-09-03T08:49:01.502Z,10.20
2023-09-03T08:51:29.868Z,4.40
2023-09-03T08:53:58.650Z,4.32
2023-09-03T08:56:26.458Z,6.47
2023-09-03T08:58:54.437Z,5.35
2023-09-03T09:01:23.238Z,3.13
2023-09-03T09:03:53.127Z,6.70
2023-09-03T09:06:21.571Z,4.13
2023-09-03T09:08:49.997Z,6.00
2023-09-03T09:11:19.364Z,3.45
2023-09-03T09:13:59.256Z,3.47
2023-09-03T09:16:26.868Z,4.35
2023-09-03T09:18:54.331Z,2.67
2023-09-03T09:21:22.196Z,6.47
2023-09-03T09:23:50.244Z,3.95
2023-09-03T09:26:23.522Z,6.43
2023-09-03T09:29:02.734Z,10.32
2023-09-03T09:31:32.296Z,4.65
2023-09-03T09:34:02.118Z,4.88
2023-09-03T09:36:31.426Z,6.03
2023-09-03T09:39:09.110Z,6.95
2023-09-03T09:41:39.127Z,5.57
2023-09-03T09:44:12.690Z,10.07
2023-09-03T09:46:41.183Z,5.72
2023-09-03T09:49:08.874Z,6.63
2023-09-03T09:51:36.520Z,3.33
2023-09-03T09:54:05.433Z,6.70
2023-09-03T09:56:37.503Z,7.05
2023-09-03T09:59:05.249Z,4.65
2023-09-03T10:01:47.841Z,4.55
2023-09-03T10:04:26.461Z,6.60
2023-09-03T10:06:54.948Z,5.82
2023-09-03T10:09:22.492Z,6.75
2023-09-03T10:11:49.950Z,6.22
2023-09-03T10:14:17.445Z,5.28
2023-09-03T10:16:45.641Z,3.55
2023-09-03T10:19:17.414Z,7.70
2023-09-03T10:21:54.829Z,6.85
2023-09-03T10:24:27.748Z,4.15
2023-09-03T10:27:00.477Z,11.85
2023-09-03T10:29:31.386Z,8.27
2023-09-03T10:32:01.289Z,4.68
2023-09-03T10:34:31.329Z,4.32
2023-09-03T10:37:05.431Z,4.55
2023-09-03T10:39:33.573Z,4.47
2023-09-03T10:42:19.202Z,7.32
2023-09-03T10:45:00.300Z,8.23
2023-09-03T10:47:28.842Z,9.30
2023-09-03T10:49:56.878Z,4.53
2023-09-03T10:52:27.328Z,6.45
2023-09-03T10:55:13.972Z,6.57
2023-09-03T10:57:42.041Z,4.35
2023-09-03T11:00:11.484Z,5.85
2023-09-03T11:02:39.577Z,7.93
2023-09-03T11:05:23.692Z,6.22
2023-09-03T11:08:33.243Z,5.82
2023-09-03T11:11:01.479Z,6.03
2023-09-03T11:13:38.551Z,6.07
2023-09-03T11:16:07.300Z,3.50
2023-09-03T11:18:34.952Z,5.22
2023-09-03T11:21:02.809Z,5.47
2023-09-03T11:23:34.984Z,6.68
2023-09-03T11:26:06.987Z,4.28
2023-09-03T11:28:38.299Z,7.38
2023-09-03T11:31:06.162Z,4.07
2023-09-03T11:33:33.925Z,5.07
2023-09-03T11:36:01.486Z,6.53
2023-09-03T11:38:31.658Z,5.85
2023-09-03T11:41:00.206Z,6.05
2023-09-03T11:43:31.985Z,3.53
2023-09-03T11:46:04.519Z,4.10
2023-09-03T11:48:33.807Z,3.47
2023-09-03T11:51:01.326Z,4.28
2023-09-03T11:53:42.338Z,4.95
2023-09-03T11:56:16.298Z,3.33
2023-09-03T11:58:46.234Z,7.10
2023-09-03T12:01:15.489Z,4.75
2023-09-03T12:03:43.680Z,5.68
2023-09-03T12:06:11.446Z,4.45
2023-09-03T12:08:39.008Z,5.18
2023-09-03T12:11:06.663Z,7.88
2023-09-03T12:13:36.651Z,3.88
2023-09-03T12:16:07.896Z,14.93
2023-09-03T12:18:36.506Z,4.00
2023-09-03T12:21:09.371Z,5.35
2023-09-03T12:23:38.513Z,3.83
2023-09-03T12:26:06.539Z,4.93
2023-09-03T12:28:39.074Z,2.90
2023-09-03T12:31:07.968Z,3.85
2023-09-03T12:33:38.556Z,3.53
2023-09-03T12:36:14.476Z,9.27
2023-09-03T12:38:57.332Z,3.35
2023-09-03T12:41:31.512Z,6.15
2023-09-03T12:44:07.727Z,4.30
2023-09-03T12:46:37.054Z,6.80
2023-09-03T12:49:05.992Z,7.28
2023-09-03T12:51:38.389Z,7.68
2023-09-03T12:54:06.384Z,3.53
2023-09-03T12:56:33.880Z,8.25
2023-09-03T12:59:06.121Z,4.13
2023-09-03T13:01:40.667Z,9.02
2023-09-03T13:04:11.407Z,3.92
2023-09-03T13:06:39.588Z,6.30
2023-09-03T13:09:09.498Z,5.50
2023-09-03T13:11:37.425Z,11.88
2023-09-03T13:14:05.094Z,6.47
2023-09-03T13:16:34.259Z,3.70
2023-09-03T13:19:09.363Z,4.53
2023-09-03T13:21:39.794Z,6.28
2023-09-03T13:24:07.437Z,5.63
2023-09-03T13:26:34.943Z,3.80
2023-09-03T13:29:02.494Z,6.28
2023-09-03T13:31:29.938Z,6.53
2023-09-03T13:33:57.508Z,4.38
2023-09-03T13:36:26.659Z,9.88
2023-09-03T13:38:54.205Z,7.70
2023-09-03T13:41:24.173Z,8.70
2023-09-03T13:43:52.290Z,3.75
2023-09-03T13:46:19.949Z,6.60
2023-09-03T13:48:47.436Z,6.72
2023-09-03T13:51:16.160Z,7.72
2023-09-03T13:53:43.621Z,6.93
2023-09-03T13:56:11.056Z,6.72
2023-09-03T13:58:40.327Z,4.13
2023-09-03T14:01:10.071Z,5.82
2023-09-03T14:03:38.038Z,5.93
2023-09-03T14:06:10.167Z,9.20
2023-09-03T14:08:38.150Z,10.57
2023-09-03T14:11:05.618Z,5.80
2023-09-03T14:13:33.108Z,7.80
2023-09-03T14:16:00.794Z,7.15
2023-09-03T14:18:29.284Z,9.40
2023-09-03T14:20:57.157Z,4.53
2023-09-03T14:23:27.787Z,8.80
2023-09-03T14:25:55.198Z,4.45
2023-09-03T14:28:29.164Z,5.55
2023-09-03T14:31:01.173Z,3.92
2023-09-03T14:33:28.650Z,5.78
2023-09-03T14:35:56.038Z,6.63
2023-09-03T14:38:23.699Z,6.00
2023-09-03T14:40:52.136Z,5.40
2023-09-03T14:43:19.786Z,5.35
2023-09-03T14:45:47.251Z,5.90
2023-09-03T14:48:14.687Z,5.35
2023-09-03T14:50:42.585Z,11.23
2023-09-03T14:53:10.112Z,7.53
2023-09-03T14:55:45.130Z,7.63
2023-09-03T14:58:12.930Z,6.53
2023-09-03T15:00:40.434Z,5.50
2023-09-03T15:03:08.058Z,14.82
2023-09-03T15:05:35.571Z,7.80
2023-09-03T15:08:03.101Z,9.93
2023-09-03T15:10:31.332Z,5.90
2023-09-03T15:12:59.135Z,11.00
2023-09-03T15:15:26.655Z,5.07
2023-09-03T15:17:54.178Z,7.07
2023-09-03T15:20:21.586Z,9.25
2023-09-03T15:22:49.057Z,16.10
2023-09-03T15:25:16.533Z,6.30
2023-09-03T15:27:44.144Z,7.07
2023-09-03T15:30:11.674Z,6.15
2023-09-03T15:32:39.207Z,7.50
2023-09-03T15:35:07.109Z,4.75
2023-09-03T15:37:34.553Z,8.85
2023-09-03T15:40:02.695Z,6.15
2023-09-03T15:42:31.365Z,7.82
2023-09-03T15:44:58.750Z,9.80
2023-09-03T15:47:26.253Z,5.70
2023-09-03T15:49:53.675Z,7.70
2023-09-03T15:52:21.025Z,7.68
2023-09-03T15:54:48.547Z,10.15
2023-09-03T15:57:15.956Z,8.63
2023-09-03T15:59:43.421Z,9.52
2023-09-03T16:02:10.838Z,17.48
2023-09-03T16:04:38.343Z,8.05
2023-09-03T16:07:05.750Z,7.47
2023-09-03T16:09:33.250Z,10.48
2023-09-03T16:12:00.716Z,12.45
2023-09-03T16:14:33.903Z,7.55
2023-09-03T16:17:01.366Z,16.15
2023-09-03T16:19:28.868Z,12.93
2023-09-03T16:21:56.360Z,9.15
2023-09-03T16:24:23.814Z,16.70
2023-09-03T16:26:51.283Z,9.60
2023-09-03T16:29:19.230Z,11.80
2023-09-03T16:31:46.827Z,14.95
2023-09-03T16:34:14.387Z,10.13
2023-09-03T16:36:44.791Z,11.07
2023-09-03T16:39:12.468Z,14.65
2023-09-03T16:41:39.977Z,10.70
2023-09-03T16:44:07.522Z,12.15
2023-09-03T16:46:36.645Z,19.00
2023-09-03T16:49:04.389Z,15.98
2023-09-03T16:51:38.977Z,17.80
2023-09-03T16:54:06.793Z,15.80
2023-09-03T16:56:34.982Z,12.43
2023-09-03T16:59:02.673Z,11.02
2023-09-03T17:01:31.691Z,6.82
2023-09-03T17:03:59.414Z,11.02
2023-09-03T17:06:27.180Z,9.45
2023-09-03T17:08:57.914Z,13.52
2023-09-03T17:11:25.479Z,16.02
2023-09-03T17:13:53.117Z,14.93
2023-09-03T17:16:20.623Z,10.68
2023-09-03T17:18:48.081Z,10.80
2023-09-03T17:21:16.527Z,14.57
2023-09-03T17:23:43.959Z,12.05
2023-09-03T17:26:23.944Z,13.13
2023-09-03T17:29:00.422Z,10.60
2023-09-03T17:31:31.440Z,11.05
2023-09-03T17:34:00.472Z,13.98
2023-09-03T17:36:31.186Z,15.35
2023-09-03T17:39:01.138Z,13.63
2023-09-03T17:41:28.660Z,15.35
2023-09-03T17:43:56.965Z,12.52
2023-09-03T17:46:24.685Z,13.50
2023-09-03T17:48:52.291Z,19.38
2023-09-03T17:51:19.875Z,13.07
2023-09-03T17:53:47.456Z,14.02
2023-09-03T17:56:14.927Z,19.75
2023-09-03T17:58:42.603Z,16.60
2023-09-03T18:01:10.132Z,11.57
2023-09-03T18:03:40.852Z,11.20
2023-09-03T18:06:15.820Z,9.30
2023-09-03T18:08:45.005Z,12.75
2023-09-03T18:11:16.039Z,15.65
2023-09-03T18:13:45.392Z,17.35
2023-09-03T18:16:17.722Z,20.90
2023-09-03T18:18:47.621Z,15.38
2023-09-03T18:21:18.622Z,24.75
2023-09-03T18:23:47.041Z,22.60
2023-09-03T18:26:18.328Z,16.00
2023-09-03T18:28:48.612Z,12.38
2023-09-03T18:31:18.439Z,8.68
2023-09-03T18:33:46.043Z,17.60
2023-09-03T18:36:13.504Z,21.00
2023-09-03T18:38:47.324Z,21.95
2023-09-03T18:41:17.271Z,27.80
2023-09-03T18:43:47.142Z,21.55
2023-09-03T18:46:15.070Z,23.77
2023-09-03T18:48:42.490Z,13.98
2023-09-03T18:51:09.909Z,21.05
2023-09-03T18:53:39.719Z,22.77
2023-09-03T18:56:11.220Z,21.60
2023-09-03T18:58:38.728Z,22.05
2023-09-03T19:01:07.821Z,20.67
2023-09-03T19:03:35.627Z,20.73
2023-09-03T19:06:03.812Z,26.77
2023-09-03T19:08:33.768Z,26.60
2023-09-03T19:11:01.886Z,25.90
2023-09-03T19:13:29.556Z,20.92
2023-09-03T19:15:57.471Z,21.77
2023-09-03T19:18:27.713Z,15.27
2023-09-03T19:21:00.049Z,27.10
2023-09-03T19:23:31.499Z,28.25
2023-09-03T19:25:59.030Z,22.10
2023-09-03T19:28:28.639Z,19.95
2023-09-03T19:30:57.998Z,23.52
2023-09-03T19:33:26.030Z,27.27
2023-09-03T19:36:01.061Z,23.95
2023-09-03T19:38:34.537Z,22.17
2023-09-03T19:41:05.016Z,33.83
2023-09-03T19:43:33.639Z,24.10
2023-09-03T19:46:01.698Z,42.42
2023-09-03T19:48:34.984Z,19.23
2023-09-03T19:51:03.159Z,25.15
2023-09-03T19:53:35.870Z,23.27
2023-09-03T19:56:11.990Z,20.48
2023-09-03T19:58:39.666Z,21.35
2023-09-03T20:01:07.778Z,24.48
2023-09-03T20:03:35.591Z,19.90
2023-09-03T20:06:04.499Z,28.48
2023-09-03T20:08:32.155Z,26.15
2023-09-03T20:11:06.335Z,32.63
2023-09-03T20:13:33.906Z,28.00
2023-09-03T20:16:02.345Z,29.52
2023-09-03T20:18:30.215Z,20.60
2023-09-03T20:21:00.847Z,23.45
2023-09-03T20:23:29.015Z,31.65
2023-09-03T20:26:00.380Z,30.63
2023-09-03T20:28:43.533Z,25.83
2023-09-03T20:31:15.728Z,23.98
2023-09-03T20:33:43.973Z,27.58
2023-09-03T20:36:11.795Z,25.70
2023-09-03T20:38:39.318Z,24.17
2023-09-03T20:41:06.887Z,22.38
2023-09-03T20:43:35.439Z,19.95
2023-09-03T20:46:03.823Z,19.70
2023-09-03T20:48:31.323Z,25.98
2023-09-03T20:51:03.408Z,22.42
2023-09-03T20:53:31.520Z,20.50
2023-09-03T20:56:00.324Z,25.25
2023-09-03T20:58:28.401Z,30.65
2023-09-03T21:00:55.954Z,44.50
2023-09-03T21:03:23.630Z,31.60
2023-09-03T21:05:51.917Z,35.85
2023-09-03T21:08:20.966Z,39.00
2023-09-03T21:11:02.272Z,29.85
2023-09-03T21:13:31.106Z,36.45
2023-09-03T21:15:59.355Z,28.27
2023-09-03T21:18:28.944Z,26.63
2023-09-03T21:21:02.246Z,31.65
2023-09-03T21:23:34.076Z,27.10
2023-09-03T21:26:02.930Z,27.83
2023-09-03T21:28:30.469Z,20.05
2023-09-03T21:30:57.856Z,25.63
2023-09-03T21:33:26.116Z,18.33
2023-09-03T21:35:53.621Z,18.80
2023-09-03T21:38:21.318Z,21.30
2023-09-03T21:40:49.358Z,21.23
2023-09-03T21:43:16.813Z,17.42
2023-09-03T21:45:44.294Z,18.55
2023-09-03T21:48:11.890Z,18.50
2023-09-03T21:50:39.572Z,12.75
2023-09-03T21:53:07.080Z,16.17
2023-09-03T21:55:34.620Z,14.85
2023-09-03T21:58:02.028Z,10.55
2023-09-03T22:00:29.409Z,13.55
2023-09-03T22:02:57.008Z,20.23
2023-09-03T22:05:24.674Z,16.75
2023-09-03T22:07:52.226Z,13.05
2023-09-03T22:10:19.886Z,13.85
2023-09-03T22:12:47.305Z,11.57
2023-09-03T22:15:14.941Z,17.13
2023-09-03T22:17:42.445Z,11.85
2023-09-03T22:20:10.410Z,13.38
2023-09-03T22:22:37.867Z,20.92
2023-09-03T22:25:06.780Z,22.08
2023-09-03T22:27:34.283Z,17.63
2023-09-03T22:30:01.932Z,19.50
2023-09-03T22:32:32.099Z,25.10
2023-09-03T22:34:59.599Z,19.35
2023-09-03T22:37:27.077Z,14.13
2023-09-03T22:39:54.743Z,19.90
2023-09-03T22:42:22.331Z,11.60
2023-09-03T22:44:49.966Z,14.98
2023-09-03T22:47:17.694Z,14.23
2023-09-03T22:49:45.343Z,11.15
2023-09-03T22:52:12.991Z,12.60
2023-09-03T22:54:40.645Z,9.00
2023-09-03T22:57:08.125Z,13.57
2023-09-03T22:59:36.724Z,14.23
2023-09-03T23:02:04.827Z,12.73
2023-09-03T23:04:32.319Z,18.52
2023-09-03T23:06:59.832Z,13.93
2023-09-03T23:09:28.468Z,15.77
2023-09-03T23:11:57.472Z,11.05
2023-09-03T23:14:25.548Z,14.38
2023-09-03T23:16:53.190Z,10.80
2023-09-03T23:19:20.774Z,11.48
2023-09-03T23:21:48.333Z,13.00
2023-09-03T23:24:16.459Z,14.07
2023-09-03T23:26:44.769Z,17.17
2023-09-03T23:29:12.718Z,13.60
2023-09-03T23:31:41.675Z,12.90
2023-09-03T23:34:09.212Z,10.75
2023-09-03T23:36:36.609Z,13.95
2023-09-03T23:39:04.624Z,14.25
2023-09-03T23:41:32.206Z,16.13
2023-09-03T23:43:59.841Z,11.80
2023-09-03T23:46:27.298Z,16.83
2023-09-03T23:48:54.826Z,17.92
2023-09-03T23:51:22.373Z,16.40
2023-09-03T23:53:49.810Z,14.30
2023-09-03T23:56:17.285Z,11.82
2023-09-03T23:58:44.751Z,14.45
